Time;durP1;ratioP1;P1;durP2;ratioP2;P2;SDS_P1;SDS_P2;PMS_P1;PMS_P2;Temp;Humidity;BMP_temperature;BMP_pressure;BME280_temperature;BME280_humidity;BME280_pressure;Samples;Min_cycle;Max_cycle;Signal;HPM_P1;HPM_P2
2023/07/21 00:00:18;;;;;;;86.93;53.55;;;20.50;70.90;;;;;;4969632;28;94710;-44
2023/07/21 00:02:45;;;;;;;86.90;53.53;;;20.40;71.00;;;;;;4966550;28;95113;-40
2023/07/21 00:05:11;;;;;;;89.10;53.65;;;20.40;70.80;;;;;;4964481;28;95197;-40
2023/07/21 00:07:37;;;;;;;87.22;53.53;;;20.40;71.10;;;;;;4967236;28;95162;-41
2023/07/21 00:10:09;;;;;;;86.55;53.22;;;20.40;70.90;;;;;;4966398;28;97280;-41
2023/07/21 00:12:37;;;;;;;86.38;53.35;;;20.40;70.90;;;;;;4962612;28;97866;-43
2023/07/21 00:15:07;;;;;;;86.43;53.40;;;20.30;71.20;;;;;;4968364;28;95237;-41
2023/07/21 00:17:34;;;;;;;86.60;53.47;;;20.30;71.50;;;;;;4967984;28;95144;-39
2023/07/21 00:20:06;;;;;;;87.40;53.45;;;20.30;71.20;;;;;;4968765;28;94623;-43
2023/07/21 00:22:32;;;;;;;86.47;53.35;;;20.30;71.20;;;;;;4962664;28;95522;-42
2023/07/21 00:25:00;;;;;;;86.30;53.47;;;20.30;71.30;;;;;;4964745;28;97640;-43
2023/07/21 00:27:26;;;;;;;87.35;53.80;;;20.30;70.90;;;;;;4963015;28;98144;-45
2023/07/21 00:29:52;;;;;;;86.72;53.50;;;20.20;71.20;;;;;;4964097;28;94310;-41
2023/07/21 00:32:18;;;;;;;86.80;53.65;;;20.20;72.00;;;;;;4969313;28;96473;-41
2023/07/21 00:34:44;;;;;;;87.20;53.83;;;20.20;71.40;;;;;;4964638;28;99604;-42
2023/07/21 00:37:10;;;;;;;87.78;53.83;;;20.20;71.40;;;;;;4968464;28;95814;-41
2023/07/21 00:39:37;;;;;;;86.63;53.65;;;20.20;71.20;;;;;;4970046;28;95160;-41
2023/07/21 00:42:04;;;;;;;86.55;53.17;;;20.20;71.80;;;;;;4968399;28;94854;-44
2023/07/21 00:44:30;;;;;;;86.28;53.33;;;20.20;71.70;;;;;;4968191;28;95116;-40
2023/07/21 00:46:56;;;;;;;86.18;53.25;;;20.10;71.50;;;;;;4953899;28;95089;-39
2023/07/21 00:49:22;;;;;;;86.82;53.22;;;20.10;71.50;;;;;;4973718;28;95850;-42
2023/07/21 00:51:48;;;;;;;87.20;53.20;;;20.10;71.50;;;;;;4967693;28;96686;-43
2023/07/21 00:54:14;;;;;;;86.95;53.58;;;20.10;71.60;;;;;;4965986;28;95932;-40
2023/07/21 00:56:42;;;;;;;87.05;53.63;;;20.10;71.80;;;;;;4970553;28;95175;-40
2023/07/21 00:59:08;;;;;;;87.07;53.20;;;20.10;71.80;;;;;;4968988;28;94696;-41
2023/07/21 01:01:33;;;;;;;86.78;53.25;;;20.10;71.60;;;;;;4968848;28;97867;-46
2023/07/21 01:03:59;;;;;;;86.30;53.08;;;20.10;71.90;;;;;;4967913;28;99775;-51
2023/07/21 01:06:27;;;;;;;86.10;53.20;;;20.10;71.80;;;;;;4948238;28;97159;-49
2023/07/21 01:08:56;;;;;;;86.43;53.40;;;20.10;71.70;;;;;;4950982;28;95192;-45
2023/07/21 01:11:24;;;;;;;86.70;53.50;;;20.00;71.70;;;;;;4949216;28;95124;-46
2023/07/21 01:13:53;;;;;;;85.82;53.17;;;20.00;71.80;;;;;;4949568;28;95053;-45
2023/07/21 01:16:20;;;;;;;86.22;53.22;;;20.00;71.90;;;;;;4952767;28;94843;-47
2023/07/21 01:18:45;;;;;;;87.07;53.83;;;20.00;71.90;;;;;;4952216;28;94124;-52
2023/07/21 01:21:19;;;;;;;86.30;53.33;;;20.00;71.60;;;;;;4954006;28;94836;-47
2023/07/21 01:23:55;;;;;;;86.30;53.35;;;20.00;71.70;;;;;;4949055;28;95858;-48
2023/07/21 01:26:23;;;;;;;85.68;52.95;;;20.00;72.00;;;;;;4955807;28;99148;-47
2023/07/21 01:28:49;;;;;;;86.40;53.17;;;19.90;72.20;;;;;;4952239;28;94705;-48
2023/07/21 01:31:16;;;;;;;85.80;52.92;;;19.90;72.00;;;;;;4952273;28;95726;-45
2023/07/21 01:33:42;;;;;;;87.22;53.13;;;19.90;72.00;;;;;;4952705;28;95003;-45
2023/07/21 01:36:08;;;;;;;85.63;52.95;;;19.90;72.30;;;;;;4955047;28;94708;-48
2023/07/21 01:38:35;;;;;;;86.35;53.42;;;19.90;72.30;;;;;;4951039;28;95001;-45
2023/07/21 01:41:02;;;;;;;86.32;53.33;;;19.80;72.30;;;;;;4952675;28;97613;-48
2023/07/21 01:43:30;;;;;;;86.65;53.72;;;19.80;72.20;;;;;;4953739;28;94251;-49
2023/07/21 01:45:55;;;;;;;87.28;54.08;;;19.80;72.20;;;;;;4952113;28;95058;-44
2023/07/21 01:48:21;;;;;;;87.55;54.72;;;19.80;72.20;;;;;;4954275;28;95026;-48
2023/07/21 01:50:48;;;;;;;87.72;54.88;;;19.70;72.00;;;;;;4951270;28;96132;-49
2023/07/21 01:53:19;;;;;;;86.82;53.75;;;19.70;72.10;;;;;;4950813;28;96667;-46
2023/07/21 01:56:40;;;;;;;88.07;54.53;;;19.70;73.00;;;;;;4950089;28;94722;-48
2023/07/21 01:59:10;;;;;;;88.70;53.90;;;19.70;72.20;;;;;;4948679;28;95035;-46
2023/07/21 02:01:37;;;;;;;88.50;54.83;;;19.70;72.40;;;;;;4952075;28;94789;-43
2023/07/21 02:04:03;;;;;;;89.38;55.42;;;19.70;72.30;;;;;;4954589;28;94719;-50
2023/07/21 02:06:30;;;;;;;87.00;54.35;;;19.60;72.40;;;;;;4963694;28;95690;-47
2023/07/21 02:08:56;;;;;;;87.18;54.13;;;19.60;72.80;;;;;;4970938;28;98764;-49
2023/07/21 02:11:21;;;;;;;88.47;54.90;;;19.60;72.90;;;;;;4971086;28;95516;-42
2023/07/21 02:13:48;;;;;;;87.93;54.75;;;19.60;73.10;;;;;;4971016;28;95220;-40
2023/07/21 02:16:13;;;;;;;87.07;54.03;;;19.60;73.10;;;;;;4970886;28;97325;-41
2023/07/21 02:18:41;;;;;;;87.97;54.92;;;19.60;73.00;;;;;;4954258;28;95130;-43
2023/07/21 02:21:07;;;;;;;87.07;54.92;;;19.50;72.90;;;;;;4971446;28;98813;-43
2023/07/21 02:23:32;;;;;;;86.57;54.17;;;19.50;72.70;;;;;;4967653;28;97157;-49
2023/07/21 02:25:59;;;;;;;88.10;54.75;;;19.50;73.10;;;;;;4957371;28;94580;-53
2023/07/21 02:28:24;;;;;;;86.50;53.67;;;19.50;73.50;;;;;;4975517;28;94690;-48
2023/07/21 02:31:02;;;;;;;87.93;54.17;;;19.50;73.10;;;;;;4974204;28;94688;-51
2023/07/21 02:33:29;;;;;;;87.32;54.25;;;19.50;73.00;;;;;;4970225;28;94667;-44
2023/07/21 02:35:55;;;;;;;87.30;54.50;;;19.50;73.20;;;;;;4973257;28;94939;-49
2023/07/21 02:38:21;;;;;;;87.28;54.88;;;19.50;72.90;;;;;;4972782;28;95335;-44
2023/07/21 02:40:46;;;;;;;87.22;54.45;;;19.50;73.30;;;;;;4969937;28;96367;-46
2023/07/21 02:43:12;;;;;;;87.22;54.53;;;19.40;73.10;;;;;;4972609;28;95416;-47
2023/07/21 02:45:38;;;;;;;88.53;55.30;;;19.40;73.30;;;;;;4970644;28;95106;-49
2023/07/21 02:48:07;;;;;;;87.97;54.78;;;19.40;73.30;;;;;;4971716;28;95586;-45
2023/07/21 02:50:33;;;;;;;87.97;54.70;;;19.40;73.40;;;;;;4970109;28;95712;-48
2023/07/21 02:52:58;;;;;;;86.70;54.28;;;19.40;73.30;;;;;;4975502;28;94984;-46
2023/07/21 02:55:24;;;;;;;88.65;56.05;;;19.40;73.30;;;;;;4972409;28;94952;-46
2023/07/21 02:57:50;;;;;;;89.00;55.42;;;19.30;73.60;;;;;;4970554;28;97587;-47
2023/07/21 03:00:15;;;;;;;88.32;55.17;;;19.30;73.50;;;;;;4967402;28;95323;-45
2023/07/21 03:02:42;;;;;;;87.32;54.58;;;19.30;73.10;;;;;;4970493;28;95025;-46
2023/07/21 03:05:08;;;;;;;88.35;54.10;;;19.30;73.10;;;;;;4969159;28;97701;-43
2023/07/21 03:07:34;;;;;;;87.93;55.38;;;19.30;73.00;;;;;;4973477;28;95410;-45
2023/07/21 03:10:00;;;;;;;88.07;55.22;;;19.30;73.00;;;;;;4964940;28;97784;-50
2023/07/21 03:12:26;;;;;;;87.35;53.72;;;19.30;73.20;;;;;;4970299;28;98496;-44
2023/07/21 03:14:51;;;;;;;87.55;55.05;;;19.30;73.20;;;;;;4951601;28;98151;-44
2023/07/21 03:17:17;;;;;;;87.80;55.08;;;19.30;73.50;;;;;;4968932;28;94695;-48
2023/07/21 03:19:43;;;;;;;88.18;54.58;;;19.30;73.10;;;;;;4968042;28;99055;-50
2023/07/21 03:22:08;;;;;;;87.82;55.13;;;19.30;73.20;;;;;;4970060;28;95763;-47
2023/07/21 03:24:34;;;;;;;86.95;54.63;;;19.30;73.30;;;;;;4937332;28;97503;-49
2023/07/21 03:27:01;;;;;;;86.82;54.13;;;19.30;73.30;;;;;;4973057;28;94722;-48
2023/07/21 03:29:26;;;;;;;88.80;55.58;;;19.30;73.10;;;;;;4970027;28;95837;-40
2023/07/21 03:31:52;;;;;;;87.05;54.70;;;19.30;73.50;;;;;;4972287;28;95431;-47
2023/07/21 03:34:18;;;;;;;86.13;53.65;;;19.20;73.20;;;;;;4968638;28;95843;-46
2023/07/21 03:36:46;;;;;;;88.80;55.63;;;19.20;73.40;;;;;;4970677;28;94995;-48
2023/07/21 03:39:11;;;;;;;88.45;55.92;;;19.20;73.20;;;;;;4968375;28;94771;-44
2023/07/21 03:41:37;;;;;;;88.47;55.60;;;19.20;73.40;;;;;;4967118;28;99818;-47
2023/07/21 03:44:02;;;;;;;86.40;53.63;;;19.20;73.30;;;;;;4967882;28;95331;-46
2023/07/21 03:46:28;;;;;;;88.88;55.50;;;19.20;73.10;;;;;;4967503;28;96382;-47
2023/07/21 03:48:53;;;;;;;88.22;55.47;;;19.20;73.30;;;;;;4969757;28;94742;-48
2023/07/21 03:51:19;;;;;;;88.65;56.08;;;19.10;73.00;;;;;;4971780;28;95091;-46
2023/07/21 03:53:45;;;;;;;88.72;55.95;;;19.10;73.00;;;;;;4972771;28;98288;-46
2023/07/21 03:56:10;;;;;;;88.63;55.55;;;19.10;73.60;;;;;;4951515;28;99005;-47
2023/07/21 03:58:36;;;;;;;88.18;55.30;;;19.10;73.00;;;;;;4967393;28;95123;-47
2023/07/21 04:01:02;;;;;;;85.95;53.78;;;19.10;73.20;;;;;;4951930;28;95119;-42
2023/07/21 04:03:27;;;;;;;87.70;55.47;;;19.10;73.60;;;;;;4969822;28;94691;-46
2023/07/21 04:05:53;;;;;;;90.00;55.85;;;19.10;73.00;;;;;;4968734;28;97197;-50
2023/07/21 04:08:19;;;;;;;88.18;55.65;;;19.10;73.20;;;;;;4967300;28;97931;-49
2023/07/21 04:10:46;;;;;;;88.93;55.00;;;19.10;73.60;;;;;;4972776;28;94588;-46
2023/07/21 04:13:11;;;;;;;87.93;55.63;;;19.10;73.10;;;;;;4970171;28;98970;-45
2023/07/21 04:15:37;;;;;;;86.55;54.20;;;19.10;73.30;;;;;;4969279;28;94763;-48
2023/07/21 04:18:04;;;;;;;87.50;54.83;;;19.10;73.40;;;;;;4968463;28;96952;-46
2023/07/21 04:20:30;;;;;;;89.53;55.95;;;19.00;73.20;;;;;;4956133;28;96869;-48
2023/07/21 04:22:55;;;;;;;87.35;55.08;;;19.00;72.80;;;;;;4971504;28;94728;-48
2023/07/21 04:25:21;;;;;;;90.07;56.72;;;19.00;73.20;;;;;;4972090;28;95865;-51
2023/07/21 04:27:50;;;;;;;89.65;56.42;;;19.00;73.10;;;;;;4970934;28;96591;-50
2023/07/21 04:30:19;;;;;;;88.88;55.28;;;19.00;73.20;;;;;;4969292;28;97409;-47
2023/07/21 04:32:44;;;;;;;88.30;54.85;;;19.00;72.80;;;;;;4974023;28;96777;-41
2023/07/21 04:35:10;;;;;;;88.95;55.83;;;19.00;73.20;;;;;;4976107;28;94582;-40
2023/07/21 04:37:36;;;;;;;89.20;55.85;;;19.00;73.00;;;;;;4977207;28;97571;-42
2023/07/21 04:40:05;;;;;;;88.03;55.28;;;19.00;72.80;;;;;;4975254;28;95025;-52
2023/07/21 04:42:32;;;;;;;88.53;56.05;;;19.00;72.60;;;;;;4977370;28;96206;-51
2023/07/21 04:44:58;;;;;;;89.90;55.22;;;18.90;72.60;;;;;;4975238;28;94938;-47
2023/07/21 04:47:24;;;;;;;86.95;54.22;;;18.90;72.70;;;;;;4972497;28;97218;-47
2023/07/21 04:49:53;;;;;;;85.30;53.40;;;18.90;73.30;;;;;;4972532;28;98145;-47
2023/07/21 04:52:19;;;;;;;87.68;54.15;;;18.90;73.40;;;;;;4972378;28;95360;-46
2023/07/21 04:54:44;;;;;;;86.85;54.63;;;18.90;73.30;;;;;;4974816;28;98335;-47
2023/07/21 04:57:10;;;;;;;87.72;54.47;;;19.00;73.30;;;;;;4974648;28;96383;-44
2023/07/21 04:59:36;;;;;;;85.70;53.97;;;19.00;72.90;;;;;;4973828;28;94202;-45
2023/07/21 05:02:02;;;;;;;86.10;53.83;;;19.00;72.80;;;;;;4973756;28;100491;-43
2023/07/21 05:04:28;;;;;;;88.25;55.13;;;19.00;73.10;;;;;;4958581;28;94683;-47
2023/07/21 05:06:54;;;;;;;87.90;55.10;;;19.00;72.90;;;;;;4973278;28;96109;-47
2023/07/21 05:09:19;;;;;;;88.97;55.13;;;19.00;73.40;;;;;;4971578;28;96734;-46
2023/07/21 05:11:46;;;;;;;87.25;54.08;;;19.00;73.60;;;;;;4974052;28;96995;-44
2023/07/21 05:14:12;;;;;;;88.90;54.78;;;19.00;72.60;;;;;;4972856;28;94722;-42
2023/07/21 05:16:38;;;;;;;87.15;54.50;;;19.00;72.50;;;;;;4971898;28;95459;-44
2023/07/21 05:19:06;;;;;;;88.18;54.97;;;18.90;72.40;;;;;;4973760;28;98050;-44
2023/07/21 05:21:32;;;;;;;86.78;54.53;;;19.00;72.50;;;;;;4974769;28;95894;-45
2023/07/21 05:23:57;;;;;;;88.32;55.33;;;19.00;72.30;;;;;;4975554;28;94293;-46
2023/07/21 05:26:23;;;;;;;87.03;54.53;;;18.90;72.40;;;;;;4973738;28;97729;-47
2023/07/21 05:28:54;;;;;;;86.22;54.03;;;19.00;72.60;;;;;;4975538;28;98549;-46
2023/07/21 05:31:20;;;;;;;86.15;53.72;;;19.00;72.30;;;;;;4974198;28;96834;-44
2023/07/21 05:33:45;;;;;;;88.57;55.00;;;19.00;72.50;;;;;;4976202;28;97406;-47
2023/07/21 05:36:11;;;;;;;87.05;54.45;;;19.00;72.90;;;;;;4950553;28;96786;-42
2023/07/21 05:38:37;;;;;;;88.68;55.25;;;19.00;72.30;;;;;;4971829;28;96649;-45
2023/07/21 05:41:04;;;;;;;87.60;54.90;;;19.00;72.40;;;;;;4973915;28;96719;-50
2023/07/21 05:43:30;;;;;;;88.07;54.58;;;19.00;72.20;;;;;;4971222;28;95763;-46
2023/07/21 05:45:56;;;;;;;87.20;54.53;;;19.00;72.10;;;;;;4969924;28;95641;-44
2023/07/21 05:48:24;;;;;;;89.70;56.05;;;19.00;72.60;;;;;;4971639;28;95190;-45
2023/07/21 05:50:50;;;;;;;87.85;54.85;;;19.00;72.40;;;;;;4969016;28;95047;-45
2023/07/21 05:53:16;;;;;;;86.90;54.70;;;19.00;71.90;;;;;;4972541;28;94800;-45
2023/07/21 05:55:42;;;;;;;87.80;54.63;;;19.10;72.00;;;;;;4971308;28;99215;-45
2023/07/21 05:58:11;;;;;;;87.45;54.58;;;19.00;72.60;;;;;;4971680;28;96788;-48
2023/07/21 06:00:38;;;;;;;86.38;53.78;;;19.10;73.10;;;;;;4972413;28;96618;-44
2023/07/21 06:03:05;;;;;;;86.65;53.97;;;19.10;71.90;;;;;;4969737;28;94562;-45
2023/07/21 06:05:30;;;;;;;85.38;53.30;;;19.10;72.40;;;;;;4967687;28;95231;-45
2023/07/21 06:07:56;;;;;;;86.20;53.83;;;19.10;71.60;;;;;;4971036;28;95192;-47
2023/07/21 06:10:22;;;;;;;85.68;53.72;;;19.10;72.10;;;;;;4952634;28;94996;-47
2023/07/21 06:12:51;;;;;;;87.38;53.90;;;19.10;71.70;;;;;;4972445;28;93898;-47
2023/07/21 06:15:16;;;;;;;87.38;53.95;;;19.20;72.60;;;;;;4970169;28;95150;-45
2023/07/21 06:17:42;;;;;;;84.90;52.85;;;19.20;72.50;;;;;;4965981;28;97476;-47
2023/07/21 06:20:10;;;;;;;87.57;53.72;;;19.20;71.70;;;;;;4969650;28;96296;-48
2023/07/21 06:22:36;;;;;;;86.78;53.53;;;19.20;71.70;;;;;;4971583;28;96898;-48
2023/07/21 06:25:03;;;;;;;86.45;53.35;;;19.20;71.40;;;;;;4972720;28;94688;-47
2023/07/21 06:27:29;;;;;;;87.25;53.88;;;19.30;71.80;;;;;;4970453;28;95041;-45
2023/07/21 06:29:55;;;;;;;84.88;53.03;;;19.30;71.50;;;;;;4970475;28;97176;-47
2023/07/21 06:32:21;;;;;;;85.60;53.53;;;19.20;71.80;;;;;;4971222;28;95202;-45
2023/07/21 06:34:47;;;;;;;85.57;53.42;;;19.30;71.80;;;;;;4975560;28;98413;-48
2023/07/21 06:37:13;;;;;;;85.60;53.15;;;19.20;71.60;;;;;;4971639;28;95014;-47
2023/07/21 06:39:38;;;;;;;86.53;53.63;;;19.20;72.40;;;;;;4968098;28;94714;-46
2023/07/21 06:42:05;;;;;;;85.93;53.47;;;19.30;71.20;;;;;;4975779;28;95129;-49
2023/07/21 06:44:31;;;;;;;85.70;53.40;;;19.30;71.30;;;;;;4969004;28;96257;-44
2023/07/21 06:46:57;;;;;;;85.95;53.20;;;19.30;71.80;;;;;;4971788;28;98568;-46
2023/07/21 06:49:23;;;;;;;86.78;53.53;;;19.30;71.80;;;;;;4974707;28;95200;-45
2023/07/21 06:51:48;;;;;;;86.13;53.83;;;19.30;71.00;;;;;;4971929;28;96774;-45
2023/07/21 06:54:14;;;;;;;86.38;53.33;;;19.40;71.10;;;;;;4971755;28;95417;-46
2023/07/21 06:56:40;;;;;;;85.57;53.35;;;19.40;71.00;;;;;;4971142;28;94859;-46
2023/07/21 06:59:05;;;;;;;85.88;53.58;;;19.40;71.80;;;;;;4974736;28;94474;-47
2023/07/21 07:01:31;;;;;;;86.18;53.47;;;19.40;70.90;;;;;;4968238;28;94883;-46
2023/07/21 07:03:58;;;;;;;86.10;53.42;;;19.40;70.70;;;;;;4966760;28;94770;-44
2023/07/21 07:06:24;;;;;;;87.13;53.55;;;19.40;71.00;;;;;;4949573;28;96269;-45
2023/07/21 07:08:50;;;;;;;86.18;53.13;;;19.40;70.60;;;;;;4968658;28;96224;-44
2023/07/21 07:11:15;;;;;;;85.93;53.45;;;19.40;71.30;;;;;;4969334;28;96465;-47
2023/07/21 07:13:41;;;;;;;90.72;55.40;;;19.40;71.10;;;;;;4963119;28;95095;-43
2023/07/21 07:16:07;;;;;;;88.55;55.08;;;19.50;72.70;;;;;;4970500;28;94711;-42
2023/07/21 07:18:32;;;;;;;88.05;55.15;;;19.60;72.00;;;;;;4969430;28;99386;-44
2023/07/21 07:20:58;;;;;;;87.78;54.42;;;19.60;72.00;;;;;;4947980;28;94961;-42
2023/07/21 07:23:24;;;;;;;92.18;55.15;;;19.70;72.50;;;;;;4970336;28;95488;-47
2023/07/21 07:25:55;;;;;;;90.28;55.25;;;19.80;72.30;;;;;;4967358;28;94506;-43
2023/07/21 07:28:21;;;;;;;87.38;54.50;;;19.80;72.10;;;;;;4968773;28;97536;-44
2023/07/21 07:30:48;;;;;;;89.85;55.15;;;19.80;72.30;;;;;;4967250;28;95407;-44
2023/07/21 07:33:14;;;;;;;91.68;54.53;;;19.80;72.70;;;;;;4963703;28;96158;-43
2023/07/21 07:35:51;;;;;;;92.72;55.08;;;19.80;72.80;;;;;;4965101;28;98962;-42
2023/07/21 07:38:19;;;;;;;90.32;54.90;;;19.70;73.80;;;;;;4967341;28;95219;-46
2023/07/21 07:40:47;;;;;;;94.80;55.78;;;19.70;72.90;;;;;;4965605;28;95032;-43
2023/07/21 07:43:13;;;;;;;92.25;55.38;;;19.70;73.00;;;;;;4962387;28;94900;-46
2023/07/21 07:45:39;;;;;;;95.22;55.40;;;19.60;73.50;;;;;;4963640;28;99832;-48
2023/07/21 07:48:05;;;;;;;91.90;55.05;;;19.70;73.10;;;;;;4963483;28;96003;-44
2023/07/21 07:50:30;;;;;;;90.57;55.17;;;19.70;73.70;;;;;;4952657;28;94681;-44
2023/07/21 07:52:59;;;;;;;90.55;55.05;;;20.00;72.90;;;;;;4966327;28;97583;-46
2023/07/21 07:55:25;;;;;;;90.40;54.45;;;20.00;72.30;;;;;;4968379;28;96477;-44
2023/07/21 07:57:51;;;;;;;96.47;55.60;;;20.10;72.50;;;;;;4966435;28;95821;-41
2023/07/21 08:00:17;;;;;;;91.25;55.42;;;20.10;70.70;;;;;;4965180;28;96046;-43
2023/07/21 08:02:43;;;;;;;91.32;55.63;;;20.20;71.50;;;;;;4967265;28;95287;-42
2023/07/21 08:05:10;;;;;;;91.60;55.40;;;20.30;71.00;;;;;;4969210;28;95099;-44
2023/07/21 08:07:36;;;;;;;92.00;55.50;;;20.40;70.60;;;;;;4963906;28;95343;-44
2023/07/21 08:10:03;;;;;;;93.28;55.05;;;20.60;69.60;;;;;;4966169;28;94788;-44
2023/07/21 08:12:29;;;;;;;91.07;54.85;;;20.70;69.60;;;;;;4963001;28;95902;-44
2023/07/21 08:14:55;;;;;;;92.55;55.08;;;20.80;67.90;;;;;;4966002;28;95896;-44
2023/07/21 08:17:20;;;;;;;91.82;54.80;;;20.90;66.80;;;;;;4965552;28;96280;-43
2023/07/21 08:19:46;;;;;;;91.43;55.03;;;20.90;66.30;;;;;;4968172;28;95003;-47
2023/07/21 08:22:11;;;;;;;89.85;54.35;;;20.80;65.90;;;;;;4966819;28;96316;-44
2023/07/21 08:24:37;;;;;;;89.65;54.25;;;20.80;65.30;;;;;;4932613;28;96551;-44
2023/07/21 08:27:03;;;;;;;90.38;54.53;;;20.70;66.50;;;;;;4968403;28;95882;-44
2023/07/21 08:29:29;;;;;;;88.20;54.42;;;21.00;65.60;;;;;;4967491;28;95653;-47
2023/07/21 08:31:54;;;;;;;89.45;54.63;;;21.10;64.30;;;;;;4968162;28;97197;-49
2023/07/21 08:34:20;;;;;;;91.50;54.25;;;21.00;64.10;;;;;;4966156;28;96283;-46
2023/07/21 08:36:45;;;;;;;91.25;54.33;;;20.90;65.20;;;;;;4967686;28;95702;-48
2023/07/21 08:39:11;;;;;;;91.15;54.40;;;21.00;65.20;;;;;;4970827;28;94247;-47
2023/07/21 08:41:46;;;;;;;91.30;55.17;;;20.90;64.70;;;;;;4968326;28;94982;-44
2023/07/21 08:44:14;;;;;;;89.15;54.15;;;20.80;65.10;;;;;;4969507;28;97654;-46
2023/07/21 08:46:40;;;;;;;88.43;54.05;;;20.80;65.80;;;;;;4963465;28;95620;-47
2023/07/21 08:49:06;;;;;;;89.57;54.03;;;20.80;63.30;;;;;;4962146;28;95026;-46
2023/07/21 08:51:32;;;;;;;90.65;54.10;;;20.70;65.00;;;;;;4960539;28;95635;-48
2023/07/21 08:53:57;;;;;;;88.38;54.03;;;20.80;65.10;;;;;;4968223;28;97498;-47
2023/07/21 08:56:24;;;;;;;90.13;54.45;;;20.80;64.40;;;;;;4967209;28;99660;-45
2023/07/21 08:58:49;;;;;;;89.30;54.17;;;20.90;63.90;;;;;;4969100;28;95403;-46
2023/07/21 09:01:16;;;;;;;91.85;54.42;;;21.00;64.30;;;;;;4965655;28;96325;-45
2023/07/21 09:03:46;;;;;;;92.65;54.53;;;21.20;63.90;;;;;;4969874;28;96077;-46
2023/07/21 09:06:14;;;;;;;90.57;55.00;;;21.20;63.40;;;;;;4965303;28;95042;-45
2023/07/21 09:08:40;;;;;;;93.32;54.83;;;21.30;62.50;;;;;;4970615;28;95862;-47
2023/07/21 09:11:08;;;;;;;89.72;54.30;;;21.20;63.10;;;;;;4956564;28;97656;-47
2023/07/21 09:13:34;;;;;;;91.90;55.35;;;21.40;63.00;;;;;;4962730;28;95431;-45
2023/07/21 09:16:05;;;;;;;91.78;54.85;;;21.50;62.40;;;;;;4967482;28;94644;-48
2023/07/21 09:18:42;;;;;;;93.55;55.22;;;21.60;62.40;;;;;;4969253;28;95755;-45
2023/07/21 09:21:19;;;;;;;93.57;55.33;;;21.80;61.00;;;;;;4967558;28;95233;-44
2023/07/21 09:23:46;;;;;;;93.07;55.38;;;21.90;60.70;;;;;;4970784;28;95278;-42
2023/07/21 09:26:15;;;;;;;99.00;57.40;;;21.90;60.70;;;;;;4968208;28;94685;-43
2023/07/21 09:28:42;;;;;;;94.97;55.67;;;21.90;61.60;;;;;;4966183;28;95632;-41
2023/07/21 09:31:08;;;;;;;91.05;55.20;;;21.90;61.70;;;;;;4964398;28;95293;-44
2023/07/21 09:33:39;;;;;;;94.35;55.03;;;21.80;60.20;;;;;;4966705;28;94451;-43
2023/07/21 09:36:10;;;;;;;93.33;55.00;;;21.70;60.90;;;;;;4961987;28;97357;-43
2023/07/21 09:38:37;;;;;;;92.00;55.08;;;21.80;62.50;;;;;;4966899;28;95246;-45
2023/07/21 09:41:05;;;;;;;91.30;54.90;;;21.70;60.60;;;;;;4963546;28;94893;-43
2023/07/21 09:43:31;;;;;;;93.30;55.10;;;21.70;62.10;;;;;;4950360;28;94946;-42
2023/07/21 09:46:07;;;;;;;92.90;55.15;;;21.50;61.20;;;;;;4965112;28;95870;-41
2023/07/21 09:48:34;;;;;;;103.10;57.53;;;21.10;70.40;;;;;;4966910;28;96773;-41
2023/07/21 09:51:02;;;;;;;93.50;56.38;;;20.30;76.90;;;;;;4968114;28;98081;-41
2023/07/21 09:53:34;;;;;;;96.35;55.63;;;19.80;80.40;;;;;;4968495;28;97684;-41
2023/07/21 09:56:02;;;;;;;95.97;55.47;;;19.80;80.30;;;;;;4947989;28;96921;-41
2023/07/21 09:58:29;;;;;;;88.20;54.78;;;19.70;80.80;;;;;;4965886;28;96875;-41
2023/07/21 10:01:01;;;;;;;90.32;54.58;;;19.80;82.10;;;;;;4947963;28;99395;-41
2023/07/21 10:03:27;;;;;;;90.22;55.72;;;20.10;83.00;;;;;;4965027;28;96203;-41
2023/07/21 10:05:53;;;;;;;87.10;54.35;;;20.00;83.90;;;;;;4968547;28;95834;-39
2023/07/21 10:08:21;;;;;;;88.40;54.30;;;20.10;80.30;;;;;;4965595;28;94710;-43
2023/07/21 10:10:47;;;;;;;88.38;53.45;;;20.10;83.10;;;;;;4964528;28;94908;-42
2023/07/21 10:13:13;;;;;;;88.00;53.75;;;20.10;79.00;;;;;;4964096;28;95390;-41
2023/07/21 10:15:40;;;;;;;89.47;54.35;;;20.10;81.20;;;;;;4959315;28;95192;-41
2023/07/21 10:18:14;;;;;;;86.68;53.92;;;20.00;78.00;;;;;;4963584;28;97646;-44
2023/07/21 10:20:44;;;;;;;88.20;54.13;;;19.90;80.50;;;;;;4965630;28;95436;-47
2023/07/21 10:23:13;;;;;;;86.82;54.03;;;19.90;81.70;;;;;;4957889;28;95054;-46
2023/07/21 10:25:50;;;;;;;87.93;54.08;;;19.90;80.60;;;;;;4967012;28;96275;-49
2023/07/21 10:28:31;;;;;;;87.82;54.13;;;19.80;82.90;;;;;;4961464;28;96305;-51
2023/07/21 10:31:25;;;;;;;87.10;54.28;;;19.90;85.60;;;;;;4963111;28;95309;-45
2023/07/21 10:34:23;;;;;;;88.22;55.25;;;20.00;81.30;;;;;;4962155;28;95461;-43
2023/07/21 10:36:58;;;;;;;90.30;55.75;;;20.30;81.00;;;;;;4945139;28;95232;-46
2023/07/21 10:39:29;;;;;;;90.10;56.35;;;20.30;80.40;;;;;;4961318;28;94789;-43
2023/07/21 10:41:57;;;;;;;91.68;56.97;;;20.30;80.00;;;;;;4967275;28;96623;-46
2023/07/21 10:44:24;;;;;;;92.00;58.35;;;20.40;80.40;;;;;;4963513;28;98716;-45
2023/07/21 10:46:51;;;;;;;94.13;57.88;;;20.30;79.80;;;;;;4964640;28;94749;-47
2023/07/21 10:49:18;;;;;;;97.38;58.70;;;20.30;80.40;;;;;;4962321;28;96572;-48
2023/07/21 10:51:46;;;;;;;91.50;57.33;;;20.30;81.70;;;;;;4961832;28;97536;-44
2023/07/21 10:54:13;;;;;;;94.28;58.53;;;20.30;80.80;;;;;;4951496;28;95234;-42
2023/07/21 10:56:41;;;;;;;91.60;57.40;;;20.30;80.90;;;;;;4969685;28;94927;-43
2023/07/21 10:59:08;;;;;;;93.80;59.55;;;20.40;80.20;;;;;;4963806;28;96399;-45
2023/07/21 11:01:36;;;;;;;95.75;59.33;;;20.50;79.80;;;;;;4964231;28;95173;-46
2023/07/21 11:04:04;;;;;;;94.82;59.63;;;20.50;76.20;;;;;;4965782;28;94741;-43
2023/07/21 11:06:29;;;;;;;94.63;59.03;;;20.60;74.20;;;;;;4957733;28;95346;-42
2023/07/21 11:08:55;;;;;;;94.88;60.05;;;20.50;77.00;;;;;;4962720;28;94546;-45
2023/07/21 11:11:21;;;;;;;96.25;59.17;;;20.70;78.10;;;;;;4958821;28;97619;-44
2023/07/21 11:13:47;;;;;;;94.40;58.78;;;20.80;77.30;;;;;;4962717;28;95986;-42
2023/07/21 11:16:13;;;;;;;96.38;59.17;;;20.80;76.80;;;;;;4959246;28;96733;-42
2023/07/21 11:18:42;;;;;;;95.22;57.38;;;20.80;75.00;;;;;;4966221;28;100152;-43
2023/07/21 11:21:08;;;;;;;95.35;59.58;;;21.00;76.80;;;;;;4966632;28;97805;-44
2023/07/21 11:23:34;;;;;;;100.18;58.60;;;21.10;74.00;;;;;;4966063;28;94907;-45
2023/07/21 11:26:10;;;;;;;97.32;57.95;;;21.00;68.30;;;;;;4967493;28;95027;-44
2023/07/21 11:28:39;;;;;;;92.35;57.15;;;21.00;69.80;;;;;;4964064;28;95312;-44
2023/07/21 11:31:15;;;;;;;94.90;57.60;;;21.10;66.30;;;;;;4964543;28;99062;-44
2023/07/21 11:33:43;;;;;;;92.38;57.65;;;21.10;62.20;;;;;;4961299;28;97724;-44
2023/07/21 11:36:17;;;;;;;93.57;57.60;;;21.10;67.90;;;;;;4969655;28;99922;-44
2023/07/21 11:38:59;;;;;;;94.15;56.88;;;21.10;62.60;;;;;;4965623;28;96865;-43
2023/07/21 11:41:40;;;;;;;92.10;57.40;;;21.20;64.30;;;;;;4941039;28;95903;-48
2023/07/21 11:44:11;;;;;;;92.05;57.25;;;21.20;63.00;;;;;;4962983;28;95512;-49
2023/07/21 11:46:37;;;;;;;91.80;56.85;;;21.30;66.70;;;;;;4959223;28;95438;-48
2023/07/21 11:49:10;;;;;;;90.55;57.00;;;21.30;67.50;;;;;;4960597;28;94815;-47
2023/07/21 11:51:46;;;;;;;92.43;57.22;;;21.20;60.00;;;;;;4965235;28;95287;-48
2023/07/21 11:54:24;;;;;;;91.35;56.85;;;21.20;62.50;;;;;;4966728;28;95580;-48
2023/07/21 11:56:51;;;;;;;92.10;56.70;;;21.40;64.20;;;;;;4964194;28;94999;-51
2023/07/21 11:59:20;;;;;;;93.45;56.78;;;21.40;60.20;;;;;;4963309;28;95484;-47
2023/07/21 12:01:47;;;;;;;93.15;57.53;;;21.40;57.90;;;;;;4966021;28;95563;-49
2023/07/21 12:04:13;;;;;;;95.50;57.30;;;21.50;58.90;;;;;;4961274;28;97551;-48
2023/07/21 12:06:39;;;;;;;92.63;57.25;;;21.50;58.70;;;;;;4965087;28;95840;-49
2023/07/21 12:09:06;;;;;;;95.10;56.75;;;21.20;56.30;;;;;;4963906;28;97851;-47
2023/07/21 12:11:35;;;;;;;94.47;57.70;;;21.40;58.80;;;;;;4963440;28;96162;-48
2023/07/21 12:14:02;;;;;;;95.15;57.67;;;21.50;56.80;;;;;;4964117;28;96142;-48
2023/07/21 12:16:29;;;;;;;95.30;57.28;;;21.50;57.00;;;;;;4965495;28;94834;-49
2023/07/21 12:18:56;;;;;;;95.85;57.75;;;21.60;55.60;;;;;;4965668;28;94996;-47
2023/07/21 12:21:21;;;;;;;92.05;57.42;;;21.60;56.50;;;;;;4962291;28;95525;-46
2023/07/21 12:23:47;;;;;;;92.28;56.85;;;21.70;55.50;;;;;;4946513;28;99351;-50
2023/07/21 12:26:13;;;;;;;93.65;56.72;;;21.60;54.70;;;;;;4951384;28;95008;-51